world map with YQI marked

YQI - Airport

This information may not be accurate or current and is not valid for navigation or flight planning. No warranty of fitness for any purpose is made or implied.

flag of Nova Scotiaflag of Canada

Donate via PayPal

Additional information is available on the NEW Great Circle Mapper

Location
City:  Yarmouth, Nova Scotia, Canada
Name:Yarmouth Airport
ICAO / IATA:CYQI / YQI

Details
Type:Airport (Airfield)
Use:Public/Civil
Latitude:43°49'38"N (43.827222)
Longitude:66°05'18"W (-66.088332)
Elevation:140 ft (43 m)
Runways:2
Longest:6000 ft (1829 m)

Time
Timezone:UTC+30:08 (DST+33:08)
Local Time:

Weather
METAR:CYQI  241400Z 29008KT 15SM FEW032 06/M01 A2995 RMK SC1 SC TR SLP146
TAF:CYQI  241138Z 2412/2424 27012KT P6SM BKN030
FM242100 24012KT P6SM BKN020 RMK NXT FCST BY 241800Z

Related Locations
Nearby:
Farthest:YDEK: 11791 mi / 18975 km
Denmark, WA, AU

Find:

   beyond  
but within

Other Information
Maps:
Sources:

  


 


Great Circle Mapper   Great Circle Mapper
Great Circle Mapper FAQ   Great Circle Mapper FAQ
  Karl's Home Page
KLSē   KLSē Home
   GC on Facebook
Airlines of the World   Airlines of the World
Donate via PayPal


Copyright © 2004-2017, Karl L. Swartz. All rights reserved.
All trademarks mentioned herein belong to their respective owners.

Please see credits for attribution and copyright information.

Karl Swartz <karl@kls2.com>
  Powered by FreeBSD
Valid HTML 4.01!
Labeled with ICRA
hCard Microformat
Geo Microformat